sensor_id;sensor_type;location;lat;lon;timestamp;pressure;altitude;pressure_sealevel;temperature;humidity
7940;BME280;4015;48.888;9.226;2022-10-16T00:00:35;159403.72;;;16.56;95.62
7940;BME280;4015;48.888;9.226;2022-10-16T00:03:02;159406.28;;;16.57;95.95
7940;BME280;4015;48.888;9.226;2022-10-16T00:05:27;159403.72;;;16.56;95.50
7940;BME280;4015;48.888;9.226;2022-10-16T00:07:53;159412.69;;;16.59;95.37
7940;BME280;4015;48.888;9.226;2022-10-16T00:10:18;159444.81;;;16.72;94.92
7940;BME280;4015;48.888;9.226;2022-10-16T00:12:43;159476.88;;;16.85;94.30
7940;BME280;4015;48.888;9.226;2022-10-16T00:15:09;159465.31;;;16.80;93.89
7940;BME280;4015;48.888;9.226;2022-10-16T00:17:34;159475.56;;;16.84;93.63
7940;BME280;4015;48.888;9.226;2022-10-16T00:19:59;159484.53;;;16.88;93.55
7940;BME280;4015;48.888;9.226;2022-10-16T00:22:25;159483.25;;;16.87;93.37
7940;BME280;4015;48.888;9.226;2022-10-16T00:24:50;159497.38;;;16.93;92.82
7940;BME280;4015;48.888;9.226;2022-10-16T00:27:16;159503.78;;;16.95;92.87
7940;BME280;4015;48.888;9.226;2022-10-16T00:29:41;159489.66;;;16.90;92.94
7940;BME280;4015;48.888;9.226;2022-10-16T00:32:07;159475.56;;;16.84;92.95
7940;BME280;4015;48.888;9.226;2022-10-16T00:34:32;159451.22;;;16.75;93.31
7940;BME280;4015;48.888;9.226;2022-10-16T00:36:57;159455.03;;;16.76;93.65
7940;BME280;4015;48.888;9.226;2022-10-16T00:39:23;159443.50;;;16.71;93.18
7940;BME280;4015;48.888;9.226;2022-10-16T00:41:48;159435.78;;;16.68;93.34
7940;BME280;4015;48.888;9.226;2022-10-16T00:47:37;159453.78;;;16.76;93.31
7940;BME280;4015;48.888;9.226;2022-10-16T00:50:13;159462.75;;;16.79;93.21
7940;BME280;4015;48.888;9.226;2022-10-16T00:52:44;159462.75;;;16.79;93.20
7940;BME280;4015;48.888;9.226;2022-10-16T00:55:11;159471.72;;;16.83;92.86
7940;BME280;4015;48.888;9.226;2022-10-16T00:57:37;159444.81;;;16.72;93.16
7940;BME280;4015;48.888;9.226;2022-10-16T01:00:08;159420.38;;;16.62;93.94
7940;BME280;4015;48.888;9.226;2022-10-16T01:02:34;159440.94;;;16.70;93.60
7940;BME280;4015;48.888;9.226;2022-10-16T01:04:59;159462.75;;;16.79;93.42
7940;BME280;4015;48.888;9.226;2022-10-16T01:07:53;159449.94;;;16.74;93.71
7940;BME280;4015;48.888;9.226;2022-10-16T01:13:11;159457.59;;;16.77;94.19
7940;BME280;4015;48.888;9.226;2022-10-16T01:18:58;159451.22;;;16.75;94.27
7940;BME280;4015;48.888;9.226;2022-10-16T01:21:28;159487.09;;;16.89;93.67
7940;BME280;4015;48.888;9.226;2022-10-16T01:29:25;159484.53;;;16.88;93.23
7940;BME280;4015;48.888;9.226;2022-10-16T01:31:56;159465.31;;;16.80;94.04
7940;BME280;4015;48.888;9.226;2022-10-16T01:34:48;159473.00;;;16.83;94.09
7940;BME280;4015;48.888;9.226;2022-10-16T01:37:20;159461.50;;;16.79;93.97
7940;BME280;4015;48.888;9.226;2022-10-16T01:39:48;159442.22;;;16.71;94.32
7940;BME280;4015;48.888;9.226;2022-10-16T01:42:30;159462.75;;;16.79;93.93
7940;BME280;4015;48.888;9.226;2022-10-16T01:44:58;159431.94;;;16.67;94.31
7940;BME280;4015;48.888;9.226;2022-10-16T01:47:26;159433.22;;;16.67;94.45
7940;BME280;4015;48.888;9.226;2022-10-16T01:49:53;159446.09;;;16.73;94.37
7940;BME280;4015;48.888;9.226;2022-10-16T01:52:23;159462.75;;;16.79;94.11
7940;BME280;4015;48.888;9.226;2022-10-16T01:54:52;159470.44;;;16.82;93.81
7940;BME280;4015;48.888;9.226;2022-10-16T01:57:20;159458.88;;;16.78;94.21
7940;BME280;4015;48.888;9.226;2022-10-16T01:59:50;159457.59;;;16.77;94.05
7940;BME280;4015;48.888;9.226;2022-10-16T02:02:17;159497.38;;;16.93;93.45
7940;BME280;4015;48.888;9.226;2022-10-16T02:04:49;159497.38;;;16.93;93.25
7940;BME280;4015;48.888;9.226;2022-10-16T02:07:18;159483.25;;;16.87;93.39
7940;BME280;4015;48.888;9.226;2022-10-16T02:09:43;159485.81;;;16.88;93.46
7940;BME280;4015;48.888;9.226;2022-10-16T02:12:21;159475.56;;;16.84;93.75
7940;BME280;4015;48.888;9.226;2022-10-16T02:14:48;159464.03;;;16.80;94.22
7940;BME280;4015;48.888;9.226;2022-10-16T02:17:16;159471.72;;;16.83;94.24
7940;BME280;4015;48.888;9.226;2022-10-16T02:19:42;159469.16;;;16.82;94.43
7940;BME280;4015;48.888;9.226;2022-10-16T02:22:16;159488.38;;;16.89;93.97
7940;BME280;4015;48.888;9.226;2022-10-16T02:27:24;159462.75;;;16.79;94.78
7940;BME280;4015;48.888;9.226;2022-10-16T02:29:59;159461.50;;;16.79;94.68
7940;BME280;4015;48.888;9.226;2022-10-16T02:32:30;159483.25;;;16.87;94.05
7940;BME280;4015;48.888;9.226;2022-10-16T02:34:58;159474.28;;;16.84;94.24
7940;BME280;4015;48.888;9.226;2022-10-16T02:37:25;159469.16;;;16.82;94.48
7940;BME280;4015;48.888;9.226;2022-10-16T02:39:52;159470.44;;;16.82;94.27
7940;BME280;4015;48.888;9.226;2022-10-16T02:42:18;159452.50;;;16.75;94.77
7940;BME280;4015;48.888;9.226;2022-10-16T02:44:44;159440.94;;;16.70;94.87
7940;BME280;4015;48.888;9.226;2022-10-16T02:47:09;159425.50;;;16.64;95.32
7940;BME280;4015;48.888;9.226;2022-10-16T02:49:34;159416.56;;;16.61;95.70
7940;BME280;4015;48.888;9.226;2022-10-16T02:51:59;159414.00;;;16.60;95.69
7940;BME280;4015;48.888;9.226;2022-10-16T02:54:25;159406.28;;;16.57;95.62
7940;BME280;4015;48.888;9.226;2022-10-16T02:56:50;159398.63;;;16.54;95.96
7940;BME280;4015;48.888;9.226;2022-10-16T02:59:16;159389.63;;;16.50;96.48
7940;BME280;4015;48.888;9.226;2022-10-16T03:01:41;159393.44;;;16.52;96.33
7940;BME280;4015;48.888;9.226;2022-10-16T03:04:06;159378.06;;;16.45;96.49
7940;BME280;4015;48.888;9.226;2022-10-16T03:06:32;159374.22;;;16.44;96.53
7940;BME280;4015;48.888;9.226;2022-10-16T03:08:57;159383.22;;;16.48;96.49
7940;BME280;4015;48.888;9.226;2022-10-16T03:11:22;159363.97;;;16.40;96.75
7940;BME280;4015;48.888;9.226;2022-10-16T03:13:48;159379.34;;;16.46;96.20
7940;BME280;4015;48.888;9.226;2022-10-16T03:16:13;159412.69;;;16.59;95.49
7940;BME280;4015;48.888;9.226;2022-10-16T03:18:38;159430.66;;;16.66;95.08
7940;BME280;4015;48.888;9.226;2022-10-16T03:21:04;159439.66;;;16.70;94.70
7940;BME280;4015;48.888;9.226;2022-10-16T03:23:29;159401.16;;;16.55;94.93
7940;BME280;4015;48.888;9.226;2022-10-16T03:25:54;159355.00;;;16.36;95.60
7940;BME280;4015;48.888;9.226;2022-10-16T03:28:20;159367.84;;;16.41;95.72
7940;BME280;4015;48.888;9.226;2022-10-16T03:30:45;159353.72;;;16.36;95.79
7940;BME280;4015;48.888;9.226;2022-10-16T03:33:11;159319.13;;;16.22;96.91
7940;BME280;4015;48.888;9.226;2022-10-16T03:35:36;159356.28;;;16.37;96.01
7940;BME280;4015;48.888;9.226;2022-10-16T03:38:02;159343.47;;;16.32;96.14
7940;BME280;4015;48.888;9.226;2022-10-16T03:40:27;159358.84;;;16.38;95.71
7940;BME280;4015;48.888;9.226;2022-10-16T03:42:52;159370.41;;;16.42;95.52
7940;BME280;4015;48.888;9.226;2022-10-16T03:45:22;159349.91;;;16.34;95.96
7940;BME280;4015;48.888;9.226;2022-10-16T03:47:47;159353.72;;;16.36;95.92
7940;BME280;4015;48.888;9.226;2022-10-16T03:50:12;159342.19;;;16.31;96.10
7940;BME280;4015;48.888;9.226;2022-10-16T03:52:38;159338.34;;;16.30;96.51
7940;BME280;4015;48.888;9.226;2022-10-16T03:55:03;159328.06;;;16.26;96.15
7940;BME280;4015;48.888;9.226;2022-10-16T03:57:29;159305.03;;;16.16;96.96
7940;BME280;4015;48.888;9.226;2022-10-16T03:59:54;159299.88;;;16.14;97.15
7940;BME280;4015;48.888;9.226;2022-10-16T04:02:19;159302.47;;;16.15;97.05
7940;BME280;4015;48.888;9.226;2022-10-16T04:04:45;159310.16;;;16.18;96.66
7940;BME280;4015;48.888;9.226;2022-10-16T04:07:10;159297.31;;;16.13;97.06
7940;BME280;4015;48.888;9.226;2022-10-16T04:09:35;159320.41;;;16.23;96.42
7940;BME280;4015;48.888;9.226;2022-10-16T04:12:01;159328.06;;;16.26;96.21
7940;BME280;4015;48.888;9.226;2022-10-16T04:14:26;159303.75;;;16.16;96.52
7940;BME280;4015;48.888;9.226;2022-10-16T04:16:51;159307.59;;;16.17;96.21
7940;BME280;4015;48.888;9.226;2022-10-16T04:19:17;159312.69;;;16.19;96.26
7940;BME280;4015;48.888;9.226;2022-10-16T04:21:42;159302.47;;;16.15;96.13
7940;BME280;4015;48.888;9.226;2022-10-16T04:24:07;159296.03;;;16.13;96.37
7940;BME280;4015;48.888;9.226;2022-10-16T04:26:33;159261.44;;;15.99;97.20
7940;BME280;4015;48.888;9.226;2022-10-16T04:28:58;159258.88;;;15.98;97.42
7940;BME280;4015;48.888;9.226;2022-10-16T04:31:23;159275.53;;;16.05;97.26
7940;BME280;4015;48.888;9.226;2022-10-16T04:33:48;159248.63;;;15.94;97.66
7940;BME280;4015;48.888;9.226;2022-10-16T04:36:14;159238.34;;;15.90;97.98
7940;BME280;4015;48.888;9.226;2022-10-16T04:38:39;159253.72;;;15.96;97.80
7940;BME280;4015;48.888;9.226;2022-10-16T04:41:06;159251.16;;;15.95;97.92
7940;BME280;4015;48.888;9.226;2022-10-16T04:43:32;159238.34;;;15.90;98.41
7940;BME280;4015;48.888;9.226;2022-10-16T04:45:57;159248.63;;;15.94;98.08
7940;BME280;4015;48.888;9.226;2022-10-16T04:48:22;159264.00;;;16.00;97.98
7940;BME280;4015;48.888;9.226;2022-10-16T04:50:48;159253.72;;;15.96;98.20
7940;BME280;4015;48.888;9.226;2022-10-16T04:53:13;159220.41;;;15.83;98.69
7940;BME280;4015;48.888;9.226;2022-10-16T04:55:39;159233.22;;;15.88;98.80
7940;BME280;4015;48.888;9.226;2022-10-16T04:58:05;159230.69;;;15.87;98.90
7940;BME280;4015;48.888;9.226;2022-10-16T05:00:30;159228.13;;;15.86;98.69
7940;BME280;4015;48.888;9.226;2022-10-16T05:02:55;159228.13;;;15.86;99.02
7940;BME280;4015;48.888;9.226;2022-10-16T05:05:21;159234.50;;;15.88;98.85
7940;BME280;4015;48.888;9.226;2022-10-16T05:07:47;159230.69;;;15.87;98.82
7940;BME280;4015;48.888;9.226;2022-10-16T05:10:14;159234.50;;;15.88;98.52
7940;BME280;4015;48.888;9.226;2022-10-16T05:12:39;159248.63;;;15.94;98.71
7940;BME280;4015;48.888;9.226;2022-10-16T05:15:05;159240.94;;;15.91;98.67
7940;BME280;4015;48.888;9.226;2022-10-16T05:17:30;159234.50;;;15.88;98.80
7940;BME280;4015;48.888;9.226;2022-10-16T05:19:56;159244.78;;;15.93;98.70
7940;BME280;4015;48.888;9.226;2022-10-16T05:22:21;159228.13;;;15.86;98.80
7940;BME280;4015;48.888;9.226;2022-10-16T05:24:47;159234.50;;;15.88;98.73
7940;BME280;4015;48.888;9.226;2022-10-16T05:27:12;159228.13;;;15.86;98.29
7940;BME280;4015;48.888;9.226;2022-10-16T05:29:46;159294.75;;;16.12;97.09
7940;BME280;4015;48.888;9.226;2022-10-16T05:32:13;159275.53;;;16.05;97.40
7940;BME280;4015;48.888;9.226;2022-10-16T05:34:39;159237.06;;;15.89;97.71
7940;BME280;4015;48.888;9.226;2022-10-16T05:37:04;159230.69;;;15.87;98.41
7940;BME280;4015;48.888;9.226;2022-10-16T05:39:30;159208.91;;;15.78;98.50
7940;BME280;4015;48.888;9.226;2022-10-16T05:41:55;159211.47;;;15.79;98.46
7940;BME280;4015;48.888;9.226;2022-10-16T05:44:21;159205.03;;;15.77;98.75
7940;BME280;4015;48.888;9.226;2022-10-16T05:46:46;159193.53;;;15.72;98.97
7940;BME280;4015;48.888;9.226;2022-10-16T05:49:12;159187.09;;;15.70;98.73
7940;BME280;4015;48.888;9.226;2022-10-16T05:51:37;159199.91;;;15.75;98.91
7940;BME280;4015;48.888;9.226;2022-10-16T05:54:02;159199.91;;;15.75;98.61
7940;BME280;4015;48.888;9.226;2022-10-16T05:56:28;159189.66;;;15.71;98.73
7940;BME280;4015;48.888;9.226;2022-10-16T05:58:53;159188.38;;;15.70;99.04
7940;BME280;4015;48.888;9.226;2022-10-16T06:01:19;159190.94;;;15.71;99.19
7940;BME280;4015;48.888;9.226;2022-10-16T06:03:46;159184.53;;;15.69;99.36
7940;BME280;4015;48.888;9.226;2022-10-16T06:06:15;159185.81;;;15.69;99.57
7940;BME280;4015;48.888;9.226;2022-10-16T06:08:42;159196.09;;;15.73;99.54
7940;BME280;4015;48.888;9.226;2022-10-16T06:11:10;159199.91;;;15.75;99.53
7940;BME280;4015;48.888;9.226;2022-10-16T06:13:36;159207.63;;;15.78;99.46
7940;BME280;4015;48.888;9.226;2022-10-16T06:16:02;159224.28;;;15.84;98.96
7940;BME280;4015;48.888;9.226;2022-10-16T06:18:28;159217.84;;;15.82;99.08
7940;BME280;4015;48.888;9.226;2022-10-16T06:20:54;159199.91;;;15.75;98.85
7940;BME280;4015;48.888;9.226;2022-10-16T06:23:20;159201.19;;;15.75;99.23
7940;BME280;4015;48.888;9.226;2022-10-16T06:25:45;159180.72;;;15.67;99.49
7940;BME280;4015;48.888;9.226;2022-10-16T06:28:11;159193.53;;;15.72;99.69
7940;BME280;4015;48.888;9.226;2022-10-16T06:30:36;159201.19;;;15.75;99.78
7940;BME280;4015;48.888;9.226;2022-10-16T06:33:01;159253.72;;;15.96;99.05
7940;BME280;4015;48.888;9.226;2022-10-16T06:35:27;159292.22;;;16.11;98.03
7940;BME280;4015;48.888;9.226;2022-10-16T06:37:54;159271.72;;;16.03;98.42
7940;BME280;4015;48.888;9.226;2022-10-16T06:40:19;159270.38;;;16.03;98.23
7940;BME280;4015;48.888;9.226;2022-10-16T06:42:44;159310.16;;;16.18;97.88
7940;BME280;4015;48.888;9.226;2022-10-16T06:45:10;159321.69;;;16.23;97.47
7940;BME280;4015;48.888;9.226;2022-10-16T06:47:35;159329.34;;;16.26;97.31
7940;BME280;4015;48.888;9.226;2022-10-16T06:50:01;159293.47;;;16.12;97.85
7940;BME280;4015;48.888;9.226;2022-10-16T06:52:29;159346.03;;;16.33;97.46
7940;BME280;4015;48.888;9.226;2022-10-16T06:54:54;159331.91;;;16.27;97.51
7940;BME280;4015;48.888;9.226;2022-10-16T06:57:19;159293.47;;;16.12;98.32
7940;BME280;4015;48.888;9.226;2022-10-16T06:59:45;159276.81;;;16.05;99.00
7940;BME280;4015;48.888;9.226;2022-10-16T07:02:10;159281.94;;;16.07;99.42
7940;BME280;4015;48.888;9.226;2022-10-16T07:04:36;159284.50;;;16.08;99.02
7940;BME280;4015;48.888;9.226;2022-10-16T07:07:01;159261.44;;;15.99;99.00
7940;BME280;4015;48.888;9.226;2022-10-16T07:09:27;159285.75;;;16.09;99.33
7940;BME280;4015;48.888;9.226;2022-10-16T07:11:52;159337.06;;;16.29;98.42
7940;BME280;4015;48.888;9.226;2022-10-16T07:14:19;159329.34;;;16.26;99.02
7940;BME280;4015;48.888;9.226;2022-10-16T07:16:45;159396.00;;;16.53;98.13
7940;BME280;4015;48.888;9.226;2022-10-16T07:19:10;159462.75;;;16.79;96.40
7940;BME280;4015;48.888;9.226;2022-10-16T07:21:38;159439.66;;;16.70;95.87
7940;BME280;4015;48.888;9.226;2022-10-16T07:24:06;159476.88;;;16.85;95.29
7940;BME280;4015;48.888;9.226;2022-10-16T07:26:34;159488.38;;;16.89;94.88
7940;BME280;4015;48.888;9.226;2022-10-16T07:29:01;159458.88;;;16.78;95.04
7940;BME280;4015;48.888;9.226;2022-10-16T07:41:34;159403.72;;;16.56;97.52
7940;BME280;4015;48.888;9.226;2022-10-16T07:44:02;159393.44;;;16.52;97.92
7940;BME280;4015;48.888;9.226;2022-10-16T07:46:29;159426.78;;;16.65;97.31
7940;BME280;4015;48.888;9.226;2022-10-16T07:48:55;159426.78;;;16.65;97.31
7940;BME280;4015;48.888;9.226;2022-10-16T07:51:23;159439.66;;;16.70;97.24
7940;BME280;4015;48.888;9.226;2022-10-16T07:53:49;159452.50;;;16.75;97.48
7940;BME280;4015;48.888;9.226;2022-10-16T07:56:16;159501.22;;;16.94;96.39
7940;BME280;4015;48.888;9.226;2022-10-16T07:58:42;159516.59;;;17.01;96.04
7940;BME280;4015;48.888;9.226;2022-10-16T08:01:10;159535.81;;;17.08;95.71
7940;BME280;4015;48.888;9.226;2022-10-16T08:03:35;159507.59;;;16.97;95.57
7940;BME280;4015;48.888;9.226;2022-10-16T08:06:01;159596.13;;;17.32;94.80
7940;BME280;4015;48.888;9.226;2022-10-16T08:08:27;159608.94;;;17.37;94.19
7940;BME280;4015;48.888;9.226;2022-10-16T08:10:52;159626.91;;;17.44;94.32
7940;BME280;4015;48.888;9.226;2022-10-16T08:13:18;159728.28;;;17.85;93.10
7940;BME280;4015;48.888;9.226;2022-10-16T08:15:44;159751.41;;;17.94;91.25
7940;BME280;4015;48.888;9.226;2022-10-16T08:18:11;159759.06;;;17.97;91.19
7940;BME280;4015;48.888;9.226;2022-10-16T08:20:36;159778.34;;;18.04;90.88
7940;BME280;4015;48.888;9.226;2022-10-16T08:23:02;159924.66;;;18.63;89.20
7940;BME280;4015;48.888;9.226;2022-10-16T08:25:28;159988.88;;;18.88;87.89
7940;BME280;4015;48.888;9.226;2022-10-16T08:27:53;160108.25;;;19.35;86.29
7940;BME280;4015;48.888;9.226;2022-10-16T08:30:20;160105.69;;;19.34;84.39
7940;BME280;4015;48.888;9.226;2022-10-16T08:32:46;160065.91;;;19.19;84.29
7940;BME280;4015;48.888;9.226;2022-10-16T08:35:13;160060.75;;;19.17;85.93
7940;BME280;4015;48.888;9.226;2022-10-16T08:37:40;160137.78;;;19.47;84.84
7940;BME280;4015;48.888;9.226;2022-10-16T08:40:07;160155.78;;;19.54;86.31
7940;BME280;4015;48.888;9.226;2022-10-16T08:49:03;160199.50;;;19.72;84.21
7940;BME280;4015;48.888;9.226;2022-10-16T08:51:35;160166.09;;;19.58;83.79
7940;BME280;4015;48.888;9.226;2022-10-16T08:54:03;160103.13;;;19.33;84.29
7940;BME280;4015;48.888;9.226;2022-10-16T08:56:29;160103.13;;;19.33;85.35
7940;BME280;4015;48.888;9.226;2022-10-16T08:58:55;160119.81;;;19.40;84.40
7940;BME280;4015;48.888;9.226;2022-10-16T09:01:23;160063.34;;;19.18;85.86
7940;BME280;4015;48.888;9.226;2022-10-16T09:06:42;160015.84;;;18.99;86.45
7940;BME280;4015;48.888;9.226;2022-10-16T09:22:43;160087.72;;;19.27;86.29
7940;BME280;4015;48.888;9.226;2022-10-16T09:25:20;160218.75;;;19.79;83.78
7940;BME280;4015;48.888;9.226;2022-10-16T09:27:48;160338.25;;;20.27;80.21
7940;BME280;4015;48.888;9.226;2022-10-16T09:30:19;160509.19;;;20.94;78.31
7940;BME280;4015;48.888;9.226;2022-10-16T09:32:46;160606.91;;;21.33;79.44
7940;BME280;4015;48.888;9.226;2022-10-16T09:35:17;160732.91;;;21.83;78.15
7940;BME280;4015;48.888;9.226;2022-10-16T09:37:47;160906.56;;;22.52;75.33
7940;BME280;4015;48.888;9.226;2022-10-16T09:40:26;161037.81;;;23.04;73.50
7940;BME280;4015;48.888;9.226;2022-10-16T09:43:01;161243.78;;;23.85;69.90
7940;BME280;4015;48.888;9.226;2022-10-16T09:45:27;161400.88;;;24.47;64.97
7940;BME280;4015;48.888;9.226;2022-10-16T09:47:52;161541.25;;;25.03;65.89
7940;BME280;4015;48.888;9.226;2022-10-16T09:50:26;161489.69;;;24.83;65.18
7940;BME280;4015;48.888;9.226;2022-10-16T09:53:14;161456.22;;;24.69;67.84
7940;BME280;4015;48.888;9.226;2022-10-16T09:55:53;161538.69;;;25.02;64.61
7940;BME280;4015;48.888;9.226;2022-10-16T09:58:22;161853.06;;;26.26;62.01
7940;BME280;4015;48.888;9.226;2022-10-16T10:00:50;162392.19;;;28.39;58.54
7940;BME280;4015;48.888;9.226;2022-10-16T10:03:37;162825.88;;;30.11;54.14
7940;BME280;4015;48.888;9.226;2022-10-16T10:06:20;163117.81;;;31.26;49.34
7940;BME280;4015;48.888;9.226;2022-10-16T10:09:05;163363.25;;;32.22;47.45
7940;BME280;4015;48.888;9.226;2022-10-16T10:11:51;163509.31;;;32.80;47.46
7940;BME280;4015;48.888;9.226;2022-10-16T10:16:47;162784.53;;;29.94;53.88
7940;BME280;4015;48.888;9.226;2022-10-16T10:19:23;162620.59;;;29.29;51.54
7940;BME280;4015;48.888;9.226;2022-10-16T10:21:50;162576.72;;;29.12;53.46
7940;BME280;4015;48.888;9.226;2022-10-16T10:24:18;162689.03;;;29.57;52.50
7940;BME280;4015;48.888;9.226;2022-10-16T10:26:53;163032.50;;;30.92;49.62
7940;BME280;4015;48.888;9.226;2022-10-16T10:35:15;163164.31;;;31.44;48.60
7940;BME280;4015;48.888;9.226;2022-10-16T10:38:16;163221.13;;;31.66;47.61
7940;BME280;4015;48.888;9.226;2022-10-16T10:40:51;162823.25;;;30.09;49.26
7940;BME280;4015;48.888;9.226;2022-10-16T10:43:38;162478.63;;;28.73;52.58
7940;BME280;4015;48.888;9.226;2022-10-16T10:46:14;162366.34;;;28.29;55.62
7940;BME280;4015;48.888;9.226;2022-10-16T10:54:20;162061.94;;;27.09;58.21
7940;BME280;4015;48.888;9.226;2022-10-16T10:57:08;162110.97;;;27.28;57.73
7940;BME280;4015;48.888;9.226;2022-10-16T11:00:06;162316.00;;;28.09;54.72
7940;BME280;4015;48.888;9.226;2022-10-16T11:02:41;162456.66;;;28.65;55.84
7940;BME280;4015;48.888;9.226;2022-10-16T11:07:52;163148.81;;;31.38;48.39
7940;BME280;4015;48.888;9.226;2022-10-16T11:10:26;163311.59;;;32.02;46.72
7940;BME280;4015;48.888;9.226;2022-10-16T11:12:58;163515.81;;;32.83;45.01
7940;BME280;4015;48.888;9.226;2022-10-16T11:15:31;163670.97;;;33.44;44.44
7940;BME280;4015;48.888;9.226;2022-10-16T11:18:19;163932.25;;;34.47;43.86
7940;BME280;4015;48.888;9.226;2022-10-16T11:20:53;164245.31;;;35.70;40.71
7940;BME280;4015;48.888;9.226;2022-10-16T11:23:28;164015.00;;;34.79;40.99
7940;BME280;4015;48.888;9.226;2022-10-16T11:26:00;163858.47;;;34.18;43.14
7940;BME280;4015;48.888;9.226;2022-10-16T11:38:43;163707.19;;;33.58;40.47
7940;BME280;4015;48.888;9.226;2022-10-16T11:41:33;163788.63;;;33.90;41.25
7940;BME280;4015;48.888;9.226;2022-10-16T11:46:50;163765.34;;;33.81;42.89
7940;BME280;4015;48.888;9.226;2022-10-16T11:49:22;163797.69;;;33.94;42.67
7940;BME280;4015;48.888;9.226;2022-10-16T11:52:17;163616.66;;;33.22;42.68
7940;BME280;4015;48.888;9.226;2022-10-16T11:55:08;163643.81;;;33.33;43.70
7940;BME280;4015;48.888;9.226;2022-10-16T11:57:43;163464.06;;;32.62;43.32
7940;BME280;4015;48.888;9.226;2022-10-16T12:02:53;163623.09;;;33.25;41.92
7940;BME280;4015;48.888;9.226;2022-10-16T12:05:39;163637.31;;;33.31;42.67
7940;BME280;4015;48.888;9.226;2022-10-16T12:08:14;163658.03;;;33.39;43.54
7940;BME280;4015;48.888;9.226;2022-10-16T12:10:43;163670.97;;;33.44;43.45
7940;BME280;4015;48.888;9.226;2022-10-16T12:18:31;163497.72;;;32.75;42.98
7940;BME280;4015;48.888;9.226;2022-10-16T12:21:00;163376.19;;;32.28;44.85
7940;BME280;4015;48.888;9.226;2022-10-16T12:23:32;163235.31;;;31.72;46.92
7940;BME280;4015;48.888;9.226;2022-10-16T12:25:59;163438.28;;;32.52;44.74
7940;BME280;4015;48.888;9.226;2022-10-16T12:28:32;163433.13;;;32.50;46.12
7940;BME280;4015;48.888;9.226;2022-10-16T12:31:01;163342.59;;;32.14;45.80
7940;BME280;4015;48.888;9.226;2022-10-16T12:33:30;163151.38;;;31.39;47.44
7940;BME280;4015;48.888;9.226;2022-10-16T12:35:57;162918.81;;;30.47;50.56
7940;BME280;4015;48.888;9.226;2022-10-16T12:45:27;163510.59;;;32.81;43.96
7940;BME280;4015;48.888;9.226;2022-10-16T12:47:55;163351.63;;;32.18;45.87
7940;BME280;4015;48.888;9.226;2022-10-16T12:53:32;163298.66;;;31.97;46.57
7940;BME280;4015;48.888;9.226;2022-10-16T12:56:20;163288.31;;;31.93;44.79
7940;BME280;4015;48.888;9.226;2022-10-16T13:01:19;162912.41;;;30.45;48.96
7940;BME280;4015;48.888;9.226;2022-10-16T13:04:13;162867.19;;;30.27;48.29
7940;BME280;4015;48.888;9.226;2022-10-16T13:06:45;162784.53;;;29.94;49.20
7940;BME280;4015;48.888;9.226;2022-10-16T13:09:28;162692.91;;;29.58;48.57
7940;BME280;4015;48.888;9.226;2022-10-16T13:15:00;162567.66;;;29.09;51.74
7940;BME280;4015;48.888;9.226;2022-10-16T13:20:33;162412.84;;;28.47;52.86
7940;BME280;4015;48.888;9.226;2022-10-16T13:28:29;162474.72;;;28.72;52.01
7940;BME280;4015;48.888;9.226;2022-10-16T13:30:58;162469.59;;;28.70;52.86
7940;BME280;4015;48.888;9.226;2022-10-16T13:33:34;162389.59;;;28.38;52.75
7940;BME280;4015;48.888;9.226;2022-10-16T13:36:01;162314.72;;;28.09;54.36
7940;BME280;4015;48.888;9.226;2022-10-16T13:38:31;162140.59;;;27.40;55.78
7940;BME280;4015;48.888;9.226;2022-10-16T13:41:03;162064.56;;;27.10;55.77
7940;BME280;4015;48.888;9.226;2022-10-16T13:43:34;162028.38;;;26.96;57.49
7940;BME280;4015;48.888;9.226;2022-10-16T13:46:01;161985.88;;;26.79;58.13
7940;BME280;4015;48.888;9.226;2022-10-16T13:58:33;162267.00;;;27.90;56.26
7940;BME280;4015;48.888;9.226;2022-10-16T14:01:02;162259.31;;;27.87;56.10
7940;BME280;4015;48.888;9.226;2022-10-16T14:03:29;162279.91;;;27.95;54.57
7940;BME280;4015;48.888;9.226;2022-10-16T14:06:03;162178.03;;;27.55;55.01
7940;BME280;4015;48.888;9.226;2022-10-16T14:08:31;162023.25;;;26.94;57.68
7940;BME280;4015;48.888;9.226;2022-10-16T14:10:59;161918.81;;;26.52;59.25
7940;BME280;4015;48.888;9.226;2022-10-16T14:15:53;161694.53;;;25.64;60.60
7940;BME280;4015;48.888;9.226;2022-10-16T14:18:23;161603.13;;;25.27;62.75
7940;BME280;4015;48.888;9.226;2022-10-16T14:20:50;161599.22;;;25.26;62.50
7940;BME280;4015;48.888;9.226;2022-10-16T14:23:29;161568.31;;;25.14;63.23
7940;BME280;4015;48.888;9.226;2022-10-16T14:26:16;161591.50;;;25.23;63.15
7940;BME280;4015;48.888;9.226;2022-10-16T14:37:59;161472.94;;;24.76;64.03
7940;BME280;4015;48.888;9.226;2022-10-16T14:40:29;161483.28;;;24.80;65.22
7940;BME280;4015;48.888;9.226;2022-10-16T14:42:55;161461.41;;;24.71;64.69
7940;BME280;4015;48.888;9.226;2022-10-16T14:45:24;161480.72;;;24.79;65.90
7940;BME280;4015;48.888;9.226;2022-10-16T14:47:54;161475.56;;;24.77;66.22
7940;BME280;4015;48.888;9.226;2022-10-16T14:50:20;161471.66;;;24.75;65.12
7940;BME280;4015;48.888;9.226;2022-10-16T14:52:45;161451.09;;;24.67;65.80
7940;BME280;4015;48.888;9.226;2022-10-16T14:55:11;161417.63;;;24.54;67.16
7940;BME280;4015;48.888;9.226;2022-10-16T14:57:37;161420.19;;;24.55;66.51
7940;BME280;4015;48.888;9.226;2022-10-16T15:00:13;161417.63;;;24.54;67.11
7940;BME280;4015;48.888;9.226;2022-10-16T15:02:39;161424.03;;;24.57;66.40
7940;BME280;4015;48.888;9.226;2022-10-16T15:05:19;161399.59;;;24.47;66.81
7940;BME280;4015;48.888;9.226;2022-10-16T15:07:45;161373.81;;;24.37;65.79
7940;BME280;4015;48.888;9.226;2022-10-16T15:10:12;161321.00;;;24.16;66.57
7940;BME280;4015;48.888;9.226;2022-10-16T15:12:38;161291.41;;;24.04;67.50
7940;BME280;4015;48.888;9.226;2022-10-16T15:15:42;161305.56;;;24.10;67.89
7940;BME280;4015;48.888;9.226;2022-10-16T15:18:08;161275.94;;;23.98;67.66
7940;BME280;4015;48.888;9.226;2022-10-16T15:20:35;161278.50;;;23.99;68.15
7940;BME280;4015;48.888;9.226;2022-10-16T15:23:06;161274.66;;;23.98;68.78
7940;BME280;4015;48.888;9.226;2022-10-16T15:25:46;161239.91;;;23.84;69.87
7940;BME280;4015;48.888;9.226;2022-10-16T15:28:12;161205.19;;;23.70;68.90
7940;BME280;4015;48.888;9.226;2022-10-16T15:30:39;161179.38;;;23.60;70.21
7940;BME280;4015;48.888;9.226;2022-10-16T15:35:30;161098.31;;;23.28;70.31